Time;durP1;ratioP1;P1;durP2;ratioP2;P2;SDS_P1;SDS_P2;PMS_P1;PMS_P2;Temp;Humidity;BMP_temperature;BMP_pressure;BME280_temperature;BME280_humidity;BME280_pressure;Samples;Min_cycle;Max_cycle;Signal;HPM_P1;HPM_P2
2022/01/15 00:00:45;;;;;;;27.35;16.08;;;;;;;4.26;81.59;101248.94;5070901;28;20023;-68
2022/01/15 00:03:14;;;;;;;36.17;18.67;;;;;;;4.18;80.87;101246.63;5073397;28;20111;-68
2022/01/15 00:05:40;;;;;;;38.42;21.00;;;;;;;4.08;80.10;101237.38;5070640;28;20032;-70
2022/01/15 00:08:05;;;;;;;37.80;22.17;;;;;;;4.01;79.83;101249.22;5079664;28;20021;-69
2022/01/15 00:10:33;;;;;;;43.55;23.33;;;;;;;3.92;79.71;101243.47;5090166;28;20044;-68
2022/01/15 00:13:01;;;;;;;45.53;24.63;;;;;;;3.77;80.12;101233.56;5071804;28;20032;-68
2022/01/15 00:15:36;;;;;;;44.17;24.90;;;;;;;3.70;79.99;101237.41;5070784;28;20085;-71
2022/01/15 00:18:10;;;;;;;47.25;24.02;;;;;;;3.55;80.92;101248.72;5083343;28;20074;-71
2022/01/15 00:20:35;;;;;;;44.85;23.73;;;;;;;3.49;81.34;101254.28;5085866;28;20448;-72
2022/01/15 00:23:01;;;;;;;44.80;23.63;;;;;;;3.33;81.00;101258.53;5084643;28;20052;-72
2022/01/15 00:25:29;;;;;;;50.97;26.35;;;;;;;3.28;81.29;101276.41;5079983;28;20108;-71
2022/01/15 00:27:54;;;;;;;49.28;25.67;;;;;;;3.19;81.29;101282.97;5084603;28;20028;-72
2022/01/15 00:30:21;;;;;;;52.60;26.60;;;;;;;3.09;82.39;101286.94;5082922;28;20054;-72
2022/01/15 00:32:46;;;;;;;46.90;24.92;;;;;;;3.03;83.02;101299.59;5080463;28;20027;-71
2022/01/15 00:35:14;;;;;;;44.15;24.42;;;;;;;2.99;83.63;101313.88;5083022;28;20032;-71
2022/01/15 00:37:40;;;;;;;54.20;29.10;;;;;;;2.90;84.93;101307.16;5085336;28;20032;-71
2022/01/15 00:40:09;;;;;;;62.97;32.25;;;;;;;2.81;84.75;101307.56;5078298;28;20102;-72
2022/01/15 00:42:37;;;;;;;66.18;34.20;;;;;;;2.75;83.97;101305.16;5080758;28;20435;-72
2022/01/15 00:45:10;;;;;;;67.03;34.42;;;;;;;2.68;83.71;101306.31;5060887;28;20028;-71
2022/01/15 00:47:35;;;;;;;70.47;35.67;;;;;;;2.62;83.41;101316.28;5065868;28;20655;-72
2022/01/15 00:50:04;;;;;;;70.55;36.50;;;;;;;2.54;83.95;101310.44;5077324;28;20264;-71
2022/01/15 00:52:30;;;;;;;71.10;37.40;;;;;;;2.35;84.15;101292.59;5079210;28;20032;-71
2022/01/15 00:54:56;;;;;;;71.13;35.70;;;;;;;2.34;83.89;101316.50;5072726;28;20040;-72
2022/01/15 00:57:21;;;;;;;69.30;35.58;;;;;;;2.22;84.14;101312.53;5072382;28;20059;-71
2022/01/15 00:59:47;;;;;;;73.82;36.55;;;;;;;2.13;83.98;101327.91;5065990;28;20511;-72
2022/01/15 01:02:16;;;;;;;73.13;35.70;;;;;;;2.05;83.96;101335.25;5082981;28;20058;-72
2022/01/15 01:04:42;;;;;;;75.15;35.53;;;;;;;1.80;84.54;101321.19;5082322;28;20031;-71
2022/01/15 01:07:08;;;;;;;69.05;35.40;;;;;;;1.76;84.54;101333.66;5080030;28;20029;-71
2022/01/15 01:21:42;;;;;;;73.28;34.72;;;;;;;1.38;87.50;101357.91;5086461;28;20035;-72
2022/01/15 01:23:21;;;;;;;72.95;37.33;;;;;;;1.29;88.16;101352.94;5068542;28;20062;-72
2022/01/15 01:25:50;;;;;;;64.20;34.00;;;;;;;1.23;88.65;101358.41;5081292;28;20032;-72
2022/01/15 01:28:25;;;;;;;67.25;34.03;;;;;;;1.15;89.07;101349.91;5070036;28;20448;-72
2022/01/15 01:31:06;;;;;;;67.95;35.38;;;;;;;1.06;88.96;101354.63;5084216;28;20111;-73
2022/01/15 01:33:39;;;;;;;67.15;33.25;;;;;;;1.02;88.79;101360.91;5081763;28;20082;-72
2022/01/15 01:38:36;;;;;;;76.07;35.75;;;;;;;0.87;89.61;101362.25;5079893;28;20023;-72
2022/01/15 01:41:05;;;;;;;71.53;35.83;;;;;;;0.83;89.78;101354.47;5063876;28;20021;-72
2022/01/15 01:49:01;;;;;;;74.85;34.75;;;;;;;0.69;90.31;101357.56;5028473;28;20039;-74
2022/01/15 01:51:31;;;;;;;68.95;33.85;;;;;;;0.63;90.47;101360.41;5073904;28;20036;-73
2022/01/15 01:53:58;;;;;;;75.85;37.42;;;;;;;0.57;90.33;101357.06;5077846;28;20027;-71
2022/01/15 01:56:24;;;;;;;75.80;36.80;;;;;;;0.52;90.33;101359.00;5068439;28;20136;-72
2022/01/15 01:58:49;;;;;;;73.15;36.17;;;;;;;0.48;90.56;101358.22;5081648;28;20103;-72
2022/01/15 02:01:16;;;;;;;75.47;34.80;;;;;;;0.37;90.34;101352.41;5075529;28;20081;-72
2022/01/15 02:03:41;;;;;;;74.28;35.75;;;;;;;0.35;90.45;101346.31;5083347;28;20039;-71
2022/01/15 02:06:07;;;;;;;79.40;38.67;;;;;;;0.28;90.92;101338.59;5082289;28;20028;-71
2022/01/15 02:08:35;;;;;;;75.78;35.17;;;;;;;0.30;91.19;101356.16;5083402;28;20135;-71
2022/01/15 02:11:03;;;;;;;72.53;35.65;;;;;;;0.19;91.40;101342.38;5077592;28;20041;-72
2022/01/15 02:13:30;;;;;;;72.80;35.17;;;;;;;0.17;91.21;101332.81;5080186;28;20032;-72
2022/01/15 02:16:00;;;;;;;75.60;38.55;;;;;;;0.18;91.29;101340.66;5077571;28;20031;-72
2022/01/15 02:18:29;;;;;;;69.28;34.22;;;;;;;0.15;91.51;101330.22;5069303;28;20380;-73
2022/01/15 02:23:32;;;;;;;73.13;33.30;;;;;;;0.17;92.17;101319.63;5080872;28;20476;-72
2022/01/15 02:23:50;;;;;;;53.90;26.67;;;;;;;0.31;95.83;101310.38;5079779;28;20499;-71
2022/01/15 02:26:17;;;;;;;48.13;23.30;;;;;;;0.52;98.58;101315.00;5079025;28;20031;-71
2022/01/15 02:28:50;;;;;;;48.05;22.20;;;;;;;0.57;99.41;101313.06;5076338;28;20036;-71
2022/01/15 02:31:17;;;;;;;45.63;21.05;;;;;;;0.61;100.00;101311.22;5081812;28;20032;-72
2022/01/15 02:33:47;;;;;;;33.08;17.77;;;;;;;0.88;100.00;101312.97;5079596;28;20020;-72
2022/01/15 02:36:19;;;;;;;34.22;17.10;;;;;;;0.89;100.00;101306.75;5071983;28;20035;-72
2022/01/15 02:38:45;;;;;;;29.70;16.75;;;;;;;1.07;100.00;101322.00;5077624;28;20032;-72
2022/01/15 02:41:11;;;;;;;28.23;15.52;;;;;;;1.29;100.00;101323.03;5079698;28;20062;-72
2022/01/15 02:43:37;;;;;;;32.05;16.00;;;;;;;1.31;100.00;101315.88;5076541;28;20024;-72
2022/01/15 02:48:00;;;;;;;27.13;15.35;;;;;;;1.37;100.00;101313.91;5066939;28;20051;-72
2022/01/15 02:49:09;;;;;;;28.42;14.77;;;;;;;1.51;100.00;101332.78;5073248;28;20033;-72
2022/01/15 02:51:36;;;;;;;26.95;14.65;;;;;;;1.55;100.00;101309.78;5071567;28;20044;-68
2022/01/15 02:54:03;;;;;;;26.38;15.55;;;;;;;1.80;100.00;101313.25;5085226;28;20431;-68
2022/01/15 02:56:33;;;;;;;25.25;15.23;;;;;;;1.79;100.00;101328.28;5080055;28;20035;-68
2022/01/15 02:58:58;;;;;;;28.55;14.93;;;;;;;1.91;100.00;101316.38;5082287;28;20510;-67
2022/01/15 03:01:24;;;;;;;25.85;15.38;;;;;;;1.94;100.00;101319.75;5072479;28;20107;-68
2022/01/15 03:03:50;;;;;;;24.90;15.13;;;;;;;2.08;100.00;101325.44;5059876;28;20068;-69
2022/01/15 03:06:17;;;;;;;24.65;14.98;;;;;;;2.35;100.00;101340.25;5070447;28;20557;-68
2022/01/15 03:08:44;;;;;;;24.83;14.55;;;;;;;2.37;100.00;101345.50;5079050;28;20081;-70
2022/01/15 03:11:11;;;;;;;22.48;13.82;;;;;;;2.28;100.00;101337.88;5067977;28;20048;-67
2022/01/15 03:13:41;;;;;;;27.80;15.40;;;;;;;2.41;100.00;101348.91;5089447;28;20111;-68
2022/01/15 03:16:15;;;;;;;25.23;13.93;;;;;;;2.34;100.00;101335.88;5077435;28;20052;-72
2022/01/15 03:18:41;;;;;;;23.20;14.20;;;;;;;2.42;100.00;101347.03;5088455;28;20031;-72
2022/01/15 03:21:07;;;;;;;23.33;13.75;;;;;;;2.47;100.00;101359.22;5080085;28;20020;-71
2022/01/15 03:23:33;;;;;;;21.52;13.20;;;;;;;2.42;100.00;101348.84;5067219;28;20032;-72
2022/01/15 03:25:58;;;;;;;25.20;14.60;;;;;;;2.57;100.00;101352.69;5075860;28;20078;-72
2022/01/15 03:28:24;;;;;;;23.13;13.70;;;;;;;2.53;100.00;101341.34;5072117;28;20036;-72
2022/01/15 03:30:52;;;;;;;21.20;13.20;;;;;;;2.52;99.83;101350.22;5084671;28;20057;-72
2022/01/15 03:33:17;;;;;;;22.95;13.60;;;;;;;2.54;99.40;101355.44;5080358;28;20042;-72
2022/01/15 03:35:45;;;;;;;23.55;13.52;;;;;;;2.63;98.96;101360.38;5073802;28;20044;-71
2022/01/15 03:38:14;;;;;;;22.75;13.27;;;;;;;2.57;98.62;101345.59;5082472;28;20059;-73
2022/01/15 03:40:40;;;;;;;23.20;13.68;;;;;;;2.48;98.57;101340.63;5084701;28;20477;-72
2022/01/15 03:43:09;;;;;;;23.88;13.07;;;;;;;2.57;99.04;101365.94;5086907;28;20016;-72
2022/01/15 03:45:37;;;;;;;23.05;13.82;;;;;;;2.50;98.54;101364.41;5083307;28;20075;-71
2022/01/15 03:48:03;;;;;;;24.75;14.02;;;;;;;2.53;98.73;101380.19;5087205;28;20024;-72
2022/01/15 03:50:29;;;;;;;20.90;13.65;;;;;;;2.45;98.59;101369.03;5079129;28;20047;-72
2022/01/15 03:52:55;;;;;;;21.88;13.00;;;;;;;2.50;98.67;101375.88;5086051;28;20031;-72
2022/01/15 03:55:24;;;;;;;21.67;13.70;;;;;;;2.55;98.42;101378.34;5080541;28;20024;-72
2022/01/15 03:57:49;;;;;;;26.10;14.40;;;;;;;2.54;98.93;101385.41;5087766;28;20057;-71
2022/01/15 04:00:25;;;;;;;23.58;14.07;;;;;;;2.51;98.45;101372.28;5084692;28;20476;-72
2022/01/15 04:02:55;;;;;;;21.50;13.18;;;;;;;2.62;98.33;101383.34;5084537;28;20028;-72
2022/01/15 04:05:21;;;;;;;20.95;12.85;;;;;;;2.70;97.90;101389.19;5082665;28;20032;-72
2022/01/15 04:07:47;;;;;;;21.05;13.02;;;;;;;2.66;98.06;101390.25;5072820;28;20025;-72
2022/01/15 04:10:15;;;;;;;24.08;13.05;;;;;;;2.65;97.72;101391.19;5082070;28;20044;-72
2022/01/15 04:12:40;;;;;;;22.42;13.57;;;;;;;2.76;97.11;101396.03;5076962;28;20032;-72
2022/01/15 04:15:08;;;;;;;23.80;13.38;;;;;;;2.69;96.62;101398.09;5085994;28;20586;-72
2022/01/15 04:17:34;;;;;;;20.55;12.38;;;;;;;2.68;96.14;101409.59;5080292;28;20422;-72
2022/01/15 04:19:59;;;;;;;19.52;12.30;;;;;;;2.65;95.41;101411.50;5080212;28;20020;-72
2022/01/15 04:22:25;;;;;;;21.45;13.35;;;;;;;2.59;96.09;101417.91;5080148;28;20035;-72
2022/01/15 04:24:51;;;;;;;21.52;12.75;;;;;;;2.57;95.64;101419.72;5080908;28;20054;-72
2022/01/15 04:27:21;;;;;;;23.77;13.60;;;;;;;2.46;96.49;101426.34;5081950;28;20373;-72
2022/01/15 04:29:47;;;;;;;25.55;14.07;;;;;;;2.41;96.39;101420.38;5080075;28;20028;-72
2022/01/15 04:32:12;;;;;;;24.25;13.85;;;;;;;2.40;96.76;101422.16;5080891;28;20086;-72
2022/01/15 04:34:39;;;;;;;23.80;13.85;;;;;;;2.29;97.26;101411.09;5078957;28;20032;-72
2022/01/15 04:37:11;;;;;;;20.48;13.15;;;;;;;2.28;97.48;101427.88;5086662;28;20028;-72
2022/01/15 04:39:37;;;;;;;22.33;13.98;;;;;;;2.30;97.19;101426.91;5071163;28;20028;-72
2022/01/15 04:42:05;;;;;;;22.15;13.40;;;;;;;2.31;97.43;101433.06;5066590;28;20044;-72
2022/01/15 04:44:31;;;;;;;22.10;12.68;;;;;;;2.22;97.59;101423.69;5082641;28;20035;-72
2022/01/15 04:46:59;;;;;;;23.60;14.48;;;;;;;2.30;98.02;101440.13;5078971;28;20028;-72
2022/01/15 04:49:25;;;;;;;26.23;13.60;;;;;;;2.22;97.84;101444.84;5063862;28;20024;-73
2022/01/15 04:51:50;;;;;;;21.50;13.40;;;;;;;2.22;97.88;101444.84;5079185;28;20020;-72
2022/01/15 04:54:15;;;;;;;24.45;13.57;;;;;;;2.16;98.07;101442.41;5079131;28;20369;-72
2022/01/15 04:56:41;;;;;;;23.27;13.93;;;;;;;2.18;98.76;101447.66;5081708;28;20472;-72
2022/01/15 04:59:06;;;;;;;24.67;14.02;;;;;;;2.04;98.19;101424.31;5086785;28;20031;-73
2022/01/15 05:01:32;;;;;;;24.95;14.57;;;;;;;2.11;98.22;101443.50;5082391;28;20035;-72
2022/01/15 05:03:57;;;;;;;25.40;14.27;;;;;;;2.15;98.26;101443.34;5082494;28;20031;-73
2022/01/15 05:06:23;;;;;;;23.58;13.38;;;;;;;2.21;97.98;101458.13;5082126;28;20031;-72
2022/01/15 05:08:52;;;;;;;22.33;13.40;;;;;;;2.14;98.28;101452.22;5081841;28;20035;-72
2022/01/15 05:11:30;;;;;;;22.58;13.60;;;;;;;2.07;98.64;101458.59;5073091;28;20052;-72
2022/01/15 05:13:58;;;;;;;22.30;13.50;;;;;;;2.00;98.09;101440.38;5064112;28;20040;-67
2022/01/15 05:16:23;;;;;;;24.40;13.85;;;;;;;2.06;98.44;101458.66;5069044;28;20624;-69
2022/01/15 05:18:49;;;;;;;24.00;14.20;;;;;;;2.07;98.33;101449.84;5070848;28;20028;-68
2022/01/15 05:21:14;;;;;;;25.30;14.82;;;;;;;2.10;98.25;101455.00;5081210;28;20036;-67
2022/01/15 05:23:40;;;;;;;21.67;13.75;;;;;;;1.88;98.86;101433.75;5068979;28;20032;-68
2022/01/15 05:26:05;;;;;;;25.65;14.40;;;;;;;1.93;99.42;101447.66;5068983;28;20035;-68
2022/01/15 05:28:31;;;;;;;23.45;13.43;;;;;;;1.94;99.39;101454.66;5068677;28;20565;-67
2022/01/15 05:31:01;;;;;;;24.67;14.02;;;;;;;1.87;99.36;101441.72;5088807;28;20024;-67
2022/01/15 05:33:29;;;;;;;24.90;14.15;;;;;;;1.96;99.13;101457.25;5082926;28;20530;-69
2022/01/15 05:35:54;;;;;;;24.38;14.15;;;;;;;1.90;98.70;101438.94;5070481;28;21003;-67
2022/01/15 05:38:20;;;;;;;24.20;14.15;;;;;;;1.92;99.04;101455.63;5084815;28;20012;-67
2022/01/15 05:40:45;;;;;;;25.35;14.00;;;;;;;1.92;99.33;101471.50;5089095;28;20016;-69
2022/01/15 05:43:11;;;;;;;27.13;14.50;;;;;;;1.79;99.23;101454.34;5080844;28;20032;-68
2022/01/15 05:45:36;;;;;;;22.17;13.20;;;;;;;1.77;99.30;101464.97;5083770;28;20762;-68
2022/01/15 05:48:02;;;;;;;26.33;16.40;;;;;;;1.82;99.62;101465.69;5088890;28;20039;-69
2022/01/15 05:50:27;;;;;;;24.35;14.90;;;;;;;1.75;99.69;101473.88;5083213;28;20024;-67
2022/01/15 05:52:53;;;;;;;25.42;14.85;;;;;;;1.71;99.47;101475.75;5068536;28;20077;-67
2022/01/15 05:55:18;;;;;;;22.70;14.63;;;;;;;1.74;99.68;101477.44;5071174;28;20017;-68
2022/01/15 05:57:44;;;;;;;26.25;14.88;;;;;;;1.70;99.99;101476.66;5072748;28;20406;-72
2022/01/15 06:00:09;;;;;;;25.88;15.98;;;;;;;1.70;99.43;101489.88;5081270;28;20082;-73
2022/01/15 06:02:35;;;;;;;37.13;19.98;;;;;;;1.73;99.44;101496.84;5080424;28;20073;-73
2022/01/15 06:05:00;;;;;;;44.25;25.42;;;;;;;1.66;99.45;101485.63;5065088;28;20021;-72
2022/01/15 06:07:26;;;;;;;44.88;25.80;;;;;;;1.72;98.87;101501.28;5076488;28;20381;-72
2022/01/15 06:09:51;;;;;;;42.22;24.30;;;;;;;1.67;99.77;101502.31;5081032;28;20044;-72
2022/01/15 06:12:17;;;;;;;39.35;22.40;;;;;;;1.68;99.47;101507.56;5083894;28;20039;-72
2022/01/15 06:14:42;;;;;;;34.05;20.88;;;;;;;1.56;100.00;101497.41;5069589;28;20079;-72
2022/01/15 06:17:08;;;;;;;30.75;17.05;;;;;;;1.58;99.68;101500.84;5069593;28;20021;-72
2022/01/15 06:19:37;;;;;;;33.15;18.95;;;;;;;1.64;99.40;101511.22;5078614;28;20028;-72
2022/01/15 06:22:03;;;;;;;34.30;18.58;;;;;;;1.60;99.89;101501.69;5081677;28;20028;-72
2022/01/15 06:24:29;;;;;;;29.02;16.05;;;;;;;1.61;99.74;101497.28;5081543;28;20481;-72
2022/01/15 06:26:54;;;;;;;31.20;16.67;;;;;;;1.49;99.74;101487.09;5072263;28;20036;-72
2022/01/15 06:29:20;;;;;;;28.98;16.23;;;;;;;1.58;100.00;101500.84;5081232;28;20040;-72
2022/01/15 06:31:46;;;;;;;25.35;15.88;;;;;;;1.51;100.00;101506.38;5079286;28;20403;-74
2022/01/15 06:34:11;;;;;;;29.08;17.40;;;;;;;1.47;100.00;101494.19;5081440;28;20036;-72
2022/01/15 06:36:37;;;;;;;30.05;17.35;;;;;;;1.45;100.00;101507.44;5084164;28;20036;-73
2022/01/15 06:39:02;;;;;;;26.88;16.05;;;;;;;1.45;100.00;101512.72;5080653;28;20483;-73
2022/01/15 06:41:28;;;;;;;33.97;17.85;;;;;;;1.48;100.00;101517.94;5081262;28;20059;-72
2022/01/15 06:43:53;;;;;;;30.20;16.02;;;;;;;1.45;100.00;101523.31;5070386;28;20016;-72
2022/01/15 06:46:21;;;;;;;46.17;24.58;;;;;;;1.36;100.00;101509.53;5077300;28;20033;-73
2022/01/15 06:48:46;;;;;;;48.58;27.60;;;;;;;1.32;100.00;101505.25;5081782;28;20090;-73
2022/01/15 06:51:12;;;;;;;39.63;23.73;;;;;;;1.29;100.00;101505.34;5086760;28;20033;-73
2022/01/15 06:53:37;;;;;;;36.22;20.75;;;;;;;1.32;100.00;101521.97;5074879;28;20032;-72
2022/01/15 06:56:03;;;;;;;30.58;18.38;;;;;;;1.29;100.00;101516.75;5085349;28;20030;-73
2022/01/15 06:58:29;;;;;;;31.70;17.85;;;;;;;1.33;100.00;101531.63;5085896;28;20487;-72
2022/01/15 07:00:54;;;;;;;32.92;17.92;;;;;;;1.34;100.00;101529.84;5086599;28;20024;-72
2022/01/15 07:03:20;;;;;;;29.90;17.92;;;;;;;1.31;100.00;101536.09;5082175;28;20023;-72
2022/01/15 07:05:45;;;;;;;34.55;20.90;;;;;;;1.37;100.00;101540.31;5085819;28;20085;-72
2022/01/15 07:08:11;;;;;;;38.60;20.27;;;;;;;1.35;100.00;101550.09;5088925;28;20029;-71
2022/01/15 07:10:41;;;;;;;38.50;20.95;;;;;;;1.36;100.00;101552.66;5072831;28;20053;-73
2022/01/15 07:13:07;;;;;;;35.25;18.55;;;;;;;1.37;100.00;101550.88;5078412;28;20029;-73
2022/01/15 07:15:34;;;;;;;25.80;16.13;;;;;;;1.42;100.00;101549.81;5088421;28;20020;-72
2022/01/15 07:18:03;;;;;;;25.13;14.73;;;;;;;1.36;100.00;101546.53;5067983;28;20028;-73
2022/01/15 07:20:28;;;;;;;26.10;15.27;;;;;;;1.40;100.00;101546.38;5072871;28;20060;-72
2022/01/15 07:22:55;;;;;;;28.35;15.75;;;;;;;1.49;100.00;101551.38;5084762;28;20059;-72
2022/01/15 07:25:21;;;;;;;30.25;16.33;;;;;;;1.53;100.00;101554.78;5090152;28;20429;-71
2022/01/15 07:27:46;;;;;;;33.35;16.85;;;;;;;1.51;100.00;101546.03;5081480;28;20032;-71
2022/01/15 07:30:14;;;;;;;29.90;16.95;;;;;;;1.58;100.00;101551.09;5070798;28;20032;-71
2022/01/15 07:32:40;;;;;;;34.13;17.90;;;;;;;1.61;100.00;101548.34;5072940;28;20025;-72
2022/01/15 07:35:07;;;;;;;25.92;15.52;;;;;;;1.62;100.00;101541.28;5061921;28;20032;-71
2022/01/15 07:37:34;;;;;;;29.23;16.02;;;;;;;1.62;100.00;101547.41;5074768;28;20560;-72
2022/01/15 07:40:00;;;;;;;32.10;18.05;;;;;;;1.63;100.00;101551.81;5072009;28;20032;-72
2022/01/15 07:42:28;;;;;;;26.50;15.18;;;;;;;1.72;100.00;101548.88;5085304;28;20110;-71
2022/01/15 07:44:53;;;;;;;27.42;15.73;;;;;;;1.78;100.00;101545.16;5059283;28;20051;-72
2022/01/15 07:47:19;;;;;;;30.13;16.20;;;;;;;1.79;100.00;101542.47;5064956;28;20074;-72
2022/01/15 07:49:45;;;;;;;30.90;16.40;;;;;;;1.95;100.00;101553.41;5083970;28;20368;-72
2022/01/15 07:52:10;;;;;;;25.95;14.70;;;;;;;2.00;100.00;101548.84;5084927;28;20028;-73
2022/01/15 07:54:39;;;;;;;29.13;15.68;;;;;;;2.02;100.00;101541.72;5090270;28;20472;-73
2022/01/15 07:57:04;;;;;;;28.25;14.75;;;;;;;2.07;100.00;101553.00;5084683;28;20021;-72
2022/01/15 07:59:30;;;;;;;24.58;14.75;;;;;;;2.06;100.00;101545.97;5080337;28;20364;-73
2022/01/15 08:01:55;;;;;;;31.13;15.35;;;;;;;2.17;100.00;101554.44;5080337;28;20075;-72
2022/01/15 08:04:21;;;;;;;28.75;14.93;;;;;;;2.26;100.00;101556.78;5092075;28;20028;-72
2022/01/15 08:06:48;;;;;;;28.63;15.15;;;;;;;2.30;100.00;101548.66;5086672;28;20483;-72
2022/01/15 08:09:14;;;;;;;26.70;15.05;;;;;;;2.32;100.00;101556.53;5073994;28;20078;-72
2022/01/15 08:11:39;;;;;;;26.63;14.52;;;;;;;2.29;100.00;101552.22;5081825;28;20048;-73
2022/01/15 08:14:05;;;;;;;22.70;13.00;;;;;;;2.63;100.00;101561.63;5089769;28;20040;-72
2022/01/15 08:16:30;;;;;;;27.15;14.23;;;;;;;2.72;99.20;101561.31;5088673;28;20024;-73
2022/01/15 08:18:56;;;;;;;28.25;13.82;;;;;;;2.75;99.32;101566.50;5085291;28;20020;-68
2022/01/15 08:21:22;;;;;;;24.17;14.23;;;;;;;2.80;97.84;101565.41;5088010;28;20027;-72
2022/01/15 08:23:47;;;;;;;28.35;15.32;;;;;;;2.78;98.20;101563.75;5081021;28;20024;-73
2022/01/15 08:26:12;;;;;;;24.48;13.88;;;;;;;2.84;98.29;101568.81;5063962;28;20028;-72
2022/01/15 08:28:38;;;;;;;25.15;14.07;;;;;;;2.85;98.72;101568.75;5073401;28;20120;-72
2022/01/15 08:31:07;;;;;;;21.73;12.70;;;;;;;2.82;98.58;101562.69;5067868;28;20039;-69
2022/01/15 08:33:33;;;;;;;25.60;13.45;;;;;;;2.85;98.46;101576.72;5068290;28;20041;-69
2022/01/15 08:35:59;;;;;;;23.05;12.73;;;;;;;2.93;98.70;101581.75;5076497;28;20032;-73
2022/01/15 08:38:25;;;;;;;21.50;13.30;;;;;;;2.92;98.61;101588.81;5087180;28;20085;-69
2022/01/15 08:40:50;;;;;;;21.67;12.52;;;;;;;2.98;97.94;101591.25;5069593;28;20032;-69
2022/01/15 08:43:16;;;;;;;19.40;12.70;;;;;;;3.02;97.38;101579.59;5074132;28;20084;-69
2022/01/15 08:45:45;;;;;;;18.92;11.80;;;;;;;3.16;96.50;101577.28;5085444;28;20023;-69
2022/01/15 08:48:19;;;;;;;18.77;11.57;;;;;;;3.38;95.28;101585.28;5080970;28;20036;-69
2022/01/15 08:50:45;;;;;;;19.75;11.18;;;;;;;3.45;94.49;101584.16;5071611;28;20021;-68
2022/01/15 08:53:11;;;;;;;20.52;11.55;;;;;;;3.52;93.40;101583.84;5085252;28;20400;-68
2022/01/15 08:55:38;;;;;;;18.00;11.32;;;;;;;3.62;91.61;101571.09;5082737;28;20028;-69
2022/01/15 08:58:04;;;;;;;20.67;12.23;;;;;;;3.59;92.63;101581.81;5077132;28;20019;-69
2022/01/15 09:00:30;;;;;;;17.58;10.95;;;;;;;3.56;92.75;101576.63;5085467;28;20166;-68
2022/01/15 09:02:56;;;;;;;20.00;10.65;;;;;;;3.60;91.92;101567.63;5068084;28;20028;-68
2022/01/15 09:05:25;;;;;;;18.17;10.98;;;;;;;3.75;91.10;101580.31;5068396;28;20485;-69
2022/01/15 09:07:51;;;;;;;17.20;10.27;;;;;;;3.99;88.60;101579.31;5070774;28;20599;-68
2022/01/15 09:10:17;;;;;;;18.55;10.43;;;;;;;3.89;88.70;101573.50;5074356;28;20123;-69
2022/01/15 09:12:43;;;;;;;17.42;10.43;;;;;;;3.89;89.30;101573.50;5064158;28;20059;-69
2022/01/15 09:15:09;;;;;;;19.33;10.23;;;;;;;4.03;88.67;101581.75;5079992;28;20476;-69
2022/01/15 09:17:35;;;;;;;17.90;9.55;;;;;;;4.10;86.52;101563.81;5071890;28;20032;-69
2022/01/15 09:20:00;;;;;;;16.08;9.57;;;;;;;4.07;87.07;101578.06;5078542;28;20023;-68
2022/01/15 09:22:26;;;;;;;21.27;10.15;;;;;;;4.13;86.89;101574.31;5077175;28;20036;-68
2022/01/15 09:24:52;;;;;;;14.50;9.48;;;;;;;4.07;87.21;101551.50;5068525;28;20027;-69
2022/01/15 09:30:15;;;;;;;17.95;10.13;;;;;;;4.22;86.50;101565.94;5079356;28;20034;-71
2022/01/15 09:32:46;;;;;;;19.30;11.32;;;;;;;4.27;85.75;101562.19;5073131;28;20475;-71
2022/01/15 09:35:17;;;;;;;18.00;10.40;;;;;;;4.32;85.68;101565.50;5081941;28;20086;-73
2022/01/15 09:37:43;;;;;;;24.33;9.65;;;;;;;4.35;84.85;101562.72;5072040;28;20126;-71
2022/01/15 09:40:10;;;;;;;15.23;8.63;;;;;;;4.40;83.84;101566.03;5085527;28;20021;-72
2022/01/15 09:42:38;;;;;;;18.48;8.15;;;;;;;4.44;82.00;101556.13;5067098;28;20045;-72
2022/01/15 09:45:06;;;;;;;14.82;7.43;;;;;;;4.47;81.26;101559.53;5079717;28;20055;-71
2022/01/15 09:47:32;;;;;;;20.35;9.57;;;;;;;4.60;79.84;101558.06;5079667;28;20028;-72
2022/01/15 09:49:58;;;;;;;16.27;9.05;;;;;;;4.56;80.36;101547.66;5079808;28;20495;-72
2022/01/15 09:52:24;;;;;;;14.60;8.88;;;;;;;4.57;80.04;101555.53;5065025;28;20035;-72
2022/01/15 09:54:50;;;;;;;17.48;8.27;;;;;;;4.59;79.67;101551.00;5080509;28;20036;-71
2022/01/15 09:57:17;;;;;;;14.07;7.80;;;;;;;4.59;78.27;101544.84;5078759;28;20032;-71
2022/01/15 09:59:43;;;;;;;18.17;7.60;;;;;;;4.82;74.88;101552.66;5078547;28;20027;-71
2022/01/15 10:02:09;;;;;;;14.73;8.13;;;;;;;4.75;75.05;101545.91;5078988;28;20027;-71
2022/01/15 10:04:35;;;;;;;13.60;7.22;;;;;;;4.81;73.95;101542.09;5077321;28;20031;-71
2022/01/15 10:07:12;;;;;;;26.40;9.23;;;;;;;4.83;75.10;101548.22;5071258;28;20119;-71
2022/01/15 10:09:38;;;;;;;18.77;7.72;;;;;;;4.89;75.34;101546.13;5060843;28;20492;-71
2022/01/15 10:12:05;;;;;;;16.08;8.80;;;;;;;5.03;75.45;101543.72;5061381;28;20027;-71
2022/01/15 10:14:33;;;;;;;12.90;8.15;;;;;;;5.06;74.79;101543.56;5075500;28;20362;-69
2022/01/15 10:17:02;;;;;;;15.75;7.72;;;;;;;5.26;73.42;101551.53;5079164;28;20528;-68
2022/01/15 10:19:36;;;;;;;17.73;7.72;;;;;;;5.17;73.79;101538.66;5067922;28;20027;-68
2022/01/15 10:22:04;;;;;;;16.23;7.93;;;;;;;5.19;74.31;101533.25;5076892;28;20047;-68
2022/01/15 10:24:30;;;;;;;16.13;7.75;;;;;;;5.29;72.73;101524.75;5080053;28;20024;-72
2022/01/15 10:26:55;;;;;;;13.13;7.20;;;;;;;5.29;71.99;101515.94;5070839;28;20035;-71
2022/01/15 10:29:21;;;;;;;17.83;7.80;;;;;;;5.44;70.59;101525.81;5082964;28;20067;-71
2022/01/15 10:31:46;;;;;;;12.63;7.22;;;;;;;5.53;70.28;101517.41;5070534;28;20484;-72
2022/01/15 10:34:32;;;;;;;14.25;7.03;;;;;;;5.64;68.24;101520.44;5079864;28;20028;-71
2022/01/15 10:37:08;;;;;;;14.35;6.78;;;;;;;5.60;68.63;101522.38;5063623;28;20177;-72
2022/01/15 10:39:33;;;;;;;16.48;7.03;;;;;;;5.60;67.74;101527.69;5079150;28;20028;-71
2022/01/15 10:41:59;;;;;;;12.93;6.43;;;;;;;5.53;68.20;101509.44;5070830;28;20035;-72
2022/01/15 10:44:36;;;;;;;16.50;6.63;;;;;;;5.56;68.04;101526.13;5080055;28;20020;-72
2022/01/15 10:47:08;;;;;;;12.27;6.43;;;;;;;5.58;67.92;101523.38;5082688;28;20472;-71
2022/01/15 10:49:37;;;;;;;77.93;13.70;;;;;;;5.58;68.03;101518.91;5078922;28;20036;-72
2022/01/15 10:52:17;;;;;;;59.95;11.82;;;;;;;5.59;66.96;101510.00;5084916;28;20115;-73
2022/01/15 10:54:54;;;;;;;15.52;6.30;;;;;;;5.62;66.34;101503.66;5059394;28;20059;-71
2022/01/15 10:57:26;;;;;;;11.98;5.75;;;;;;;5.72;64.82;101494.28;5080236;28;20028;-72
2022/01/15 11:00:10;;;;;;;15.80;6.03;;;;;;;5.77;64.50;101495.78;5079908;28;20034;-71
2022/01/15 11:02:36;;;;;;;25.67;7.20;;;;;;;5.73;64.59;101491.56;5069793;28;20029;-71
2022/01/15 11:05:03;;;;;;;12.40;5.90;;;;;;;5.76;64.47;101483.44;5084483;28;20492;-72
2022/01/15 11:07:35;;;;;;;13.50;5.30;;;;;;;5.80;63.92;101492.13;5055842;28;20039;-72
2022/01/15 11:10:02;;;;;;;12.50;5.78;;;;;;;6.13;61.33;101501.13;5072044;28;20044;-71
2022/01/15 11:12:27;;;;;;;13.60;6.43;;;;;;;6.20;60.45;101489.22;5058764;28;20020;-72
2022/01/15 11:14:54;;;;;;;11.90;6.10;;;;;;;6.22;60.02;101480.19;5084268;28;20023;-71
2022/01/15 11:17:22;;;;;;;12.77;6.40;;;;;;;6.18;61.05;101475.09;5081936;28;20532;-72
2022/01/15 11:19:51;;;;;;;13.15;6.07;;;;;;;6.14;61.56;101474.41;5072899;28;20020;-72
2022/01/15 11:22:21;;;;;;;13.80;6.28;;;;;;;6.17;61.88;101478.72;5068142;28;20024;-72
2022/01/15 11:24:48;;;;;;;14.18;6.55;;;;;;;6.13;61.47;101470.00;5077355;28;20032;-71
2022/01/15 11:27:14;;;;;;;13.85;6.13;;;;;;;6.21;61.33;101475.81;5080389;28;20127;-72
2022/01/15 11:29:43;;;;;;;15.88;6.60;;;;;;;6.30;61.29;101482.47;5080118;28;20557;-72
2022/01/15 11:32:13;;;;;;;13.82;6.35;;;;;;;6.26;60.14;101471.09;5081556;28;20043;-71
2022/01/15 11:34:41;;;;;;;13.43;5.93;;;;;;;6.26;60.36;101471.09;5046487;28;20024;-72
2022/01/15 11:37:22;;;;;;;10.02;5.85;;;;;;;6.31;60.54;101469.06;5085000;28;20039;-71
2022/01/15 11:39:48;;;;;;;14.15;6.43;;;;;;;6.35;60.35;101469.75;5081005;28;20030;-72